sensor_id;sensor_type;location;lat;lon;timestamp;pressure;altitude;pressure_sealevel;temperature;humidity
12536;BME280;6334;48.696;2.114;2023-04-06T00:01:29;100115.83;;;10.54;46.08
12536;BME280;6334;48.696;2.114;2023-04-06T00:03:59;100107.25;;;10.39;45.96
12536;BME280;6334;48.696;2.114;2023-04-06T00:06:28;100108.11;;;10.43;47.31
12536;BME280;6334;48.696;2.114;2023-04-06T00:08:58;100113.83;;;10.38;47.36
12536;BME280;6334;48.696;2.114;2023-04-06T00:11:27;100111.28;;;10.36;47.26
12536;BME280;6334;48.696;2.114;2023-04-06T00:13:57;100106.92;;;10.40;47.36
12536;BME280;6334;48.696;2.114;2023-04-06T00:16:27;100105.34;;;10.54;47.03
12536;BME280;6334;48.696;2.114;2023-04-06T00:18:56;100096.07;;;10.24;49.19
12536;BME280;6334;48.696;2.114;2023-04-06T00:21:26;100100.75;;;10.31;48.37
12536;BME280;6334;48.696;2.114;2023-04-06T00:23:55;100098.23;;;10.44;48.23
12536;BME280;6334;48.696;2.114;2023-04-06T00:26:25;100084.11;;;10.51;48.15
12536;BME280;6334;48.696;2.114;2023-04-06T00:28:55;100082.88;;;10.55;47.93
12536;BME280;6334;48.696;2.114;2023-04-06T00:31:24;100081.72;;;10.54;47.85
12536;BME280;6334;48.696;2.114;2023-04-06T00:33:55;100081.66;;;10.45;48.10
12536;BME280;6334;48.696;2.114;2023-04-06T00:36:24;100079.89;;;10.48;48.29
12536;BME280;6334;48.696;2.114;2023-04-06T00:38:54;100079.80;;;10.48;48.75
12536;BME280;6334;48.696;2.114;2023-04-06T00:41:23;100072.85;;;10.51;48.58
12536;BME280;6334;48.696;2.114;2023-04-06T00:43:54;100072.58;;;10.39;48.11
12536;BME280;6334;48.696;2.114;2023-04-06T00:46:24;100072.13;;;10.24;48.78
12536;BME280;6334;48.696;2.114;2023-04-06T00:48:53;100072.23;;;10.02;51.40
12536;BME280;6334;48.696;2.114;2023-04-06T00:51:24;100070.44;;;9.60;50.97
12536;BME280;6334;48.696;2.114;2023-04-06T00:53:54;100065.48;;;9.78;50.13
12536;BME280;6334;48.696;2.114;2023-04-06T00:56:24;100069.23;;;9.75;49.56
12536;BME280;6334;48.696;2.114;2023-04-06T00:58:53;100065.72;;;10.07;48.25
12536;BME280;6334;48.696;2.114;2023-04-06T01:01:23;100069.37;;;10.06;49.55
12536;BME280;6334;48.696;2.114;2023-04-06T01:03:53;100065.50;;;10.31;47.45
12536;BME280;6334;48.696;2.114;2023-04-06T01:06:22;100063.63;;;10.08;48.90
12536;BME280;6334;48.696;2.114;2023-04-06T01:08:52;100059.89;;;10.06;50.07
12536;BME280;6334;48.696;2.114;2023-04-06T01:11:22;100048.27;;;10.30;49.26
12536;BME280;6334;48.696;2.114;2023-04-06T01:13:53;100042.60;;;10.24;49.33
12536;BME280;6334;48.696;2.114;2023-04-06T01:16:22;100041.61;;;10.22;48.40
12536;BME280;6334;48.696;2.114;2023-04-06T01:18:52;100037.55;;;10.32;49.55
12536;BME280;6334;48.696;2.114;2023-04-06T01:21:22;100039.20;;;10.30;49.67
12536;BME280;6334;48.696;2.114;2023-04-06T01:23:51;100041.39;;;10.12;50.09
12536;BME280;6334;48.696;2.114;2023-04-06T01:26:21;100038.97;;;10.22;49.08
12536;BME280;6334;48.696;2.114;2023-04-06T01:28:50;100033.09;;;10.09;49.58
12536;BME280;6334;48.696;2.114;2023-04-06T01:31:20;100038.84;;;10.02;50.31
12536;BME280;6334;48.696;2.114;2023-04-06T01:33:50;100036.82;;;10.03;50.42
12536;BME280;6334;48.696;2.114;2023-04-06T01:36:19;100032.95;;;9.82;51.73
12536;BME280;6334;48.696;2.114;2023-04-06T01:38:49;100035.60;;;10.24;49.81
12536;BME280;6334;48.696;2.114;2023-04-06T01:41:18;100028.53;;;10.19;49.28
12536;BME280;6334;48.696;2.114;2023-04-06T01:43:49;100032.31;;;10.05;51.00
12536;BME280;6334;48.696;2.114;2023-04-06T01:46:18;100029.59;;;10.19;49.69
12536;BME280;6334;48.696;2.114;2023-04-06T01:48:48;100024.27;;;10.12;49.41
12536;BME280;6334;48.696;2.114;2023-04-06T01:51:18;100021.94;;;10.12;51.06
12536;BME280;6334;48.696;2.114;2023-04-06T01:53:47;100011.42;;;10.18;51.26
12536;BME280;6334;48.696;2.114;2023-04-06T01:56:18;100010.02;;;10.06;50.96
12536;BME280;6334;48.696;2.114;2023-04-06T01:58:47;100009.52;;;10.25;51.05
12536;BME280;6334;48.696;2.114;2023-04-06T02:01:28;100013.66;;;9.84;53.52
12536;BME280;6334;48.696;2.114;2023-04-06T02:03:57;100013.64;;;9.94;52.93
12536;BME280;6334;48.696;2.114;2023-04-06T02:06:27;100011.55;;;10.12;51.27
12536;BME280;6334;48.696;2.114;2023-04-06T02:08:58;100006.69;;;9.91;53.22
12536;BME280;6334;48.696;2.114;2023-04-06T02:11:27;100004.67;;;10.01;51.34
12536;BME280;6334;48.696;2.114;2023-04-06T02:13:57;100017.84;;;9.79;52.70
12536;BME280;6334;48.696;2.114;2023-04-06T02:16:26;100021.94;;;9.47;53.16
12536;BME280;6334;48.696;2.114;2023-04-06T02:18:57;100019.75;;;9.90;52.47
12536;BME280;6334;48.696;2.114;2023-04-06T02:21:26;100008.12;;;9.89;52.84
12536;BME280;6334;48.696;2.114;2023-04-06T02:23:57;99998.25;;;9.88;52.68
12536;BME280;6334;48.696;2.114;2023-04-06T02:26:26;99988.91;;;9.99;51.58
12536;BME280;6334;48.696;2.114;2023-04-06T02:28:57;99984.91;;;10.01;52.10
12536;BME280;6334;48.696;2.114;2023-04-06T02:31:27;99985.43;;;9.99;51.43
12536;BME280;6334;48.696;2.114;2023-04-06T02:33:56;99993.46;;;10.01;52.82
12536;BME280;6334;48.696;2.114;2023-04-06T02:36:27;100000.41;;;9.60;52.78
12536;BME280;6334;48.696;2.114;2023-04-06T02:38:58;99999.71;;;9.65;52.67
12536;BME280;6334;48.696;2.114;2023-04-06T02:41:29;100001.22;;;9.82;51.85
12536;BME280;6334;48.696;2.114;2023-04-06T02:43:59;99993.10;;;10.03;52.45
12536;BME280;6334;48.696;2.114;2023-04-06T02:46:29;99986.03;;;9.97;52.89
12536;BME280;6334;48.696;2.114;2023-04-06T02:48:59;99987.06;;;9.75;52.06
12536;BME280;6334;48.696;2.114;2023-04-06T02:51:28;99995.42;;;9.41;53.98
12536;BME280;6334;48.696;2.114;2023-04-06T02:53:58;99995.06;;;9.65;54.00
12536;BME280;6334;48.696;2.114;2023-04-06T02:56:27;99995.70;;;9.69;53.06
12536;BME280;6334;48.696;2.114;2023-04-06T02:58:57;99991.85;;;9.95;53.04
12536;BME280;6334;48.696;2.114;2023-04-06T03:01:26;99986.75;;;9.65;52.69
12536;BME280;6334;48.696;2.114;2023-04-06T03:03:56;99990.20;;;9.95;52.05
12536;BME280;6334;48.696;2.114;2023-04-06T03:06:27;99993.83;;;9.55;52.92
12536;BME280;6334;48.696;2.114;2023-04-06T03:08:56;99989.63;;;9.67;54.34
12536;BME280;6334;48.696;2.114;2023-04-06T03:11:27;99984.10;;;9.82;52.25
12536;BME280;6334;48.696;2.114;2023-04-06T03:13:56;99969.19;;;9.95;53.59
12536;BME280;6334;48.696;2.114;2023-04-06T03:16:32;99969.45;;;9.98;53.93
12536;BME280;6334;48.696;2.114;2023-04-06T03:19:01;99958.30;;;9.86;52.87
12536;BME280;6334;48.696;2.114;2023-04-06T03:21:31;99959.68;;;10.05;53.25
12536;BME280;6334;48.696;2.114;2023-04-06T03:24:01;99953.39;;;9.80;53.58
12536;BME280;6334;48.696;2.114;2023-04-06T03:26:31;99952.06;;;9.60;56.03
12536;BME280;6334;48.696;2.114;2023-04-06T03:29:01;99950.47;;;9.80;55.26
12536;BME280;6334;48.696;2.114;2023-04-06T03:31:30;99949.41;;;9.68;53.95
12536;BME280;6334;48.696;2.114;2023-04-06T03:34:00;99950.90;;;9.77;54.13
12536;BME280;6334;48.696;2.114;2023-04-06T03:36:29;99948.63;;;9.74;54.29
12536;BME280;6334;48.696;2.114;2023-04-06T03:38:59;99945.73;;;9.62;54.60
12536;BME280;6334;48.696;2.114;2023-04-06T03:41:28;99948.33;;;9.86;52.96
12536;BME280;6334;48.696;2.114;2023-04-06T03:43:58;99957.39;;;9.92;52.70
12536;BME280;6334;48.696;2.114;2023-04-06T03:46:29;99959.44;;;9.73;53.38
12536;BME280;6334;48.696;2.114;2023-04-06T03:48:58;99967.00;;;9.44;54.88
12536;BME280;6334;48.696;2.114;2023-04-06T03:51:28;99973.48;;;9.42;54.98
12536;BME280;6334;48.696;2.114;2023-04-06T03:53:59;99969.55;;;9.57;54.49
12536;BME280;6334;48.696;2.114;2023-04-06T03:56:29;99970.54;;;9.83;52.95
12536;BME280;6334;48.696;2.114;2023-04-06T03:58:59;99974.87;;;9.55;55.15
12536;BME280;6334;48.696;2.114;2023-04-06T04:01:29;99976.51;;;9.57;55.21
12536;BME280;6334;48.696;2.114;2023-04-06T04:04:00;99966.85;;;9.52;55.78
12536;BME280;6334;48.696;2.114;2023-04-06T04:06:29;99969.63;;;9.34;56.99
12536;BME280;6334;48.696;2.114;2023-04-06T04:08:59;99970.45;;;9.05;58.37
12536;BME280;6334;48.696;2.114;2023-04-06T04:11:29;99960.52;;;9.46;58.76
12536;BME280;6334;48.696;2.114;2023-04-06T04:13:59;99952.01;;;9.66;56.98
12536;BME280;6334;48.696;2.114;2023-04-06T04:16:28;99957.53;;;9.24;57.38
12536;BME280;6334;48.696;2.114;2023-04-06T04:19:00;99969.64;;;9.03;59.12
12536;BME280;6334;48.696;2.114;2023-04-06T04:21:30;99976.94;;;9.13;59.11
12536;BME280;6334;48.696;2.114;2023-04-06T04:23:59;99979.28;;;9.24;58.83
12536;BME280;6334;48.696;2.114;2023-04-06T04:26:29;99979.47;;;9.20;59.98
12536;BME280;6334;48.696;2.114;2023-04-06T04:29:00;99974.09;;;9.39;57.90
12536;BME280;6334;48.696;2.114;2023-04-06T04:31:30;99980.73;;;9.41;58.13
12536;BME280;6334;48.696;2.114;2023-04-06T04:34:00;99972.75;;;9.19;60.28
12536;BME280;6334;48.696;2.114;2023-04-06T04:36:29;99974.72;;;9.21;58.43
12536;BME280;6334;48.696;2.114;2023-04-06T04:38:59;99967.69;;;9.20;59.76
12536;BME280;6334;48.696;2.114;2023-04-06T04:41:29;99967.00;;;9.33;58.47
12536;BME280;6334;48.696;2.114;2023-04-06T04:43:59;99969.23;;;8.87;60.42
12536;BME280;6334;48.696;2.114;2023-04-06T04:46:28;99972.20;;;9.37;58.70
12536;BME280;6334;48.696;2.114;2023-04-06T04:48:58;99990.22;;;9.25;59.39
12536;BME280;6334;48.696;2.114;2023-04-06T04:51:27;99995.07;;;9.32;60.92
12536;BME280;6334;48.696;2.114;2023-04-06T04:53:57;99999.41;;;9.16;60.75
12536;BME280;6334;48.696;2.114;2023-04-06T04:56:28;99993.35;;;9.30;59.52
12536;BME280;6334;48.696;2.114;2023-04-06T04:58:57;99992.49;;;9.55;59.65
12536;BME280;6334;48.696;2.114;2023-04-06T05:01:27;100000.91;;;9.01;61.21
12536;BME280;6334;48.696;2.114;2023-04-06T05:03:57;99994.96;;;9.48;58.28
12536;BME280;6334;48.696;2.114;2023-04-06T05:06:28;99995.72;;;9.08;59.74
12536;BME280;6334;48.696;2.114;2023-04-06T05:08:57;99991.55;;;9.16;62.55
12536;BME280;6334;48.696;2.114;2023-04-06T05:11:28;99990.59;;;9.29;62.90
12536;BME280;6334;48.696;2.114;2023-04-06T05:13:58;99990.80;;;9.23;61.11
12536;BME280;6334;48.696;2.114;2023-04-06T05:16:28;99985.91;;;9.47;59.00
12536;BME280;6334;48.696;2.114;2023-04-06T05:18:57;99981.07;;;9.28;61.64
12536;BME280;6334;48.696;2.114;2023-04-06T05:21:27;99992.16;;;8.83;63.13
12536;BME280;6334;48.696;2.114;2023-04-06T05:23:57;99986.77;;;9.42;62.08
12536;BME280;6334;48.696;2.114;2023-04-06T05:26:27;99979.99;;;9.38;61.74
12536;BME280;6334;48.696;2.114;2023-04-06T05:28:57;99982.91;;;9.29;60.99
12536;BME280;6334;48.696;2.114;2023-04-06T05:31:26;99992.14;;;9.48;62.33
12536;BME280;6334;48.696;2.114;2023-04-06T05:33:56;99985.30;;;9.27;61.35
12536;BME280;6334;48.696;2.114;2023-04-06T05:36:26;99997.62;;;8.83;65.05
12536;BME280;6334;48.696;2.114;2023-04-06T05:38:55;99994.58;;;9.07;65.43
12536;BME280;6334;48.696;2.114;2023-04-06T05:41:26;99988.27;;;9.41;60.67
12536;BME280;6334;48.696;2.114;2023-04-06T05:43:56;99989.66;;;9.35;61.41
12536;BME280;6334;48.696;2.114;2023-04-06T05:46:26;99985.77;;;9.88;65.99
12536;BME280;6334;48.696;2.114;2023-04-06T05:48:56;99988.65;;;9.48;62.08
12536;BME280;6334;48.696;2.114;2023-04-06T05:51:27;99991.09;;;9.62;61.98
12536;BME280;6334;48.696;2.114;2023-04-06T05:53:58;99990.68;;;9.18;62.35
12536;BME280;6334;48.696;2.114;2023-04-06T05:56:29;99983.83;;;9.03;64.46
12536;BME280;6334;48.696;2.114;2023-04-06T05:58:59;99974.95;;;9.26;62.89
12536;BME280;6334;48.696;2.114;2023-04-06T06:01:31;99977.53;;;9.24;62.44
12536;BME280;6334;48.696;2.114;2023-04-06T06:04:01;99979.14;;;9.31;64.20
12536;BME280;6334;48.696;2.114;2023-04-06T06:06:31;99979.70;;;9.22;62.71
12536;BME280;6334;48.696;2.114;2023-04-06T06:09:02;99980.02;;;9.44;63.00
12536;BME280;6334;48.696;2.114;2023-04-06T06:11:33;99983.09;;;9.34;65.74
12536;BME280;6334;48.696;2.114;2023-04-06T06:14:03;99985.27;;;9.23;65.54
12536;BME280;6334;48.696;2.114;2023-04-06T06:16:33;99977.33;;;9.20;65.44
12536;BME280;6334;48.696;2.114;2023-04-06T06:19:04;99985.08;;;9.24;65.26
12536;BME280;6334;48.696;2.114;2023-04-06T06:21:34;99991.66;;;9.44;65.17
12536;BME280;6334;48.696;2.114;2023-04-06T06:24:05;99991.70;;;9.28;67.24
12536;BME280;6334;48.696;2.114;2023-04-06T06:26:35;99990.09;;;9.32;65.04
12536;BME280;6334;48.696;2.114;2023-04-06T06:29:06;99992.19;;;9.51;67.54
12536;BME280;6334;48.696;2.114;2023-04-06T06:31:36;99991.48;;;9.33;64.69
12536;BME280;6334;48.696;2.114;2023-04-06T06:34:06;99986.45;;;9.41;68.00
12536;BME280;6334;48.696;2.114;2023-04-06T06:36:37;99994.83;;;9.62;66.68
12536;BME280;6334;48.696;2.114;2023-04-06T06:39:07;99986.66;;;9.47;65.01
12536;BME280;6334;48.696;2.114;2023-04-06T06:41:38;99991.23;;;9.43;65.23
12536;BME280;6334;48.696;2.114;2023-04-06T06:44:08;99990.55;;;9.29;66.69
12536;BME280;6334;48.696;2.114;2023-04-06T06:46:41;99993.47;;;9.45;65.57
12536;BME280;6334;48.696;2.114;2023-04-06T06:49:11;99994.30;;;9.12;67.17
12536;BME280;6334;48.696;2.114;2023-04-06T06:51:42;99991.93;;;9.40;70.11
12536;BME280;6334;48.696;2.114;2023-04-06T06:54:12;99995.96;;;9.00;70.04
12536;BME280;6334;48.696;2.114;2023-04-06T06:56:43;99995.25;;;9.19;69.40
12536;BME280;6334;48.696;2.114;2023-04-06T06:59:13;99997.30;;;8.97;70.38
12536;BME280;6334;48.696;2.114;2023-04-06T07:01:43;99999.31;;;8.79;71.52
12536;BME280;6334;48.696;2.114;2023-04-06T07:04:14;99994.59;;;8.77;71.83
12536;BME280;6334;48.696;2.114;2023-04-06T07:06:44;100001.17;;;8.90;72.92
12536;BME280;6334;48.696;2.114;2023-04-06T07:09:15;99995.67;;;8.89;72.59
12536;BME280;6334;48.696;2.114;2023-04-06T07:11:45;99996.30;;;8.83;72.34
12536;BME280;6334;48.696;2.114;2023-04-06T07:14:16;99998.62;;;8.83;72.59
12536;BME280;6334;48.696;2.114;2023-04-06T07:16:46;99998.76;;;8.77;73.45
12536;BME280;6334;48.696;2.114;2023-04-06T07:19:17;99998.72;;;8.93;71.80
12536;BME280;6334;48.696;2.114;2023-04-06T07:21:47;99996.62;;;8.71;72.97
12536;BME280;6334;48.696;2.114;2023-04-06T07:24:18;99990.81;;;9.00;73.15
12536;BME280;6334;48.696;2.114;2023-04-06T07:26:48;99985.05;;;8.93;73.88
12536;BME280;6334;48.696;2.114;2023-04-06T07:29:19;99985.95;;;8.93;73.29
12536;BME280;6334;48.696;2.114;2023-04-06T07:31:49;99978.48;;;8.94;73.05
12536;BME280;6334;48.696;2.114;2023-04-06T07:34:20;99982.55;;;8.79;74.40
12536;BME280;6334;48.696;2.114;2023-04-06T07:36:50;99985.40;;;9.28;72.53
12536;BME280;6334;48.696;2.114;2023-04-06T07:39:21;99982.44;;;9.32;72.59
12536;BME280;6334;48.696;2.114;2023-04-06T07:41:51;99981.60;;;9.24;72.69
12536;BME280;6334;48.696;2.114;2023-04-06T07:44:21;99982.49;;;9.16;75.50
12536;BME280;6334;48.696;2.114;2023-04-06T07:46:52;99979.31;;;9.30;74.92
12536;BME280;6334;48.696;2.114;2023-04-06T07:49:22;99987.75;;;9.46;73.82
12536;BME280;6334;48.696;2.114;2023-04-06T07:51:53;99977.97;;;9.22;75.46
12536;BME280;6334;48.696;2.114;2023-04-06T07:54:23;99979.72;;;9.30;74.72
12536;BME280;6334;48.696;2.114;2023-04-06T07:56:54;99983.69;;;9.43;75.46
12536;BME280;6334;48.696;2.114;2023-04-06T07:59:24;99983.61;;;9.43;75.23
12536;BME280;6334;48.696;2.114;2023-04-06T08:01:55;99986.63;;;9.58;74.73
12536;BME280;6334;48.696;2.114;2023-04-06T08:04:25;99988.09;;;9.43;75.40
12536;BME280;6334;48.696;2.114;2023-04-06T08:06:56;99985.12;;;9.42;76.03
12536;BME280;6334;48.696;2.114;2023-04-06T08:09:27;99978.72;;;9.40;76.36
12536;BME280;6334;48.696;2.114;2023-04-06T08:11:58;99979.36;;;9.56;75.33
12536;BME280;6334;48.696;2.114;2023-04-06T08:14:28;99975.50;;;9.68;75.81
12536;BME280;6334;48.696;2.114;2023-04-06T08:16:59;99982.56;;;9.48;78.29
12536;BME280;6334;48.696;2.114;2023-04-06T08:19:29;99978.55;;;9.79;75.31
12536;BME280;6334;48.696;2.114;2023-04-06T08:21:59;99981.48;;;9.78;74.24
12536;BME280;6334;48.696;2.114;2023-04-06T08:24:30;99972.15;;;9.72;76.55
12536;BME280;6334;48.696;2.114;2023-04-06T08:27:00;99983.00;;;9.85;77.07
12536;BME280;6334;48.696;2.114;2023-04-06T08:29:31;99989.86;;;10.02;76.01
12536;BME280;6334;48.696;2.114;2023-04-06T08:32:03;99989.23;;;9.92;76.02
12536;BME280;6334;48.696;2.114;2023-04-06T08:34:34;99992.70;;;9.94;76.32
12536;BME280;6334;48.696;2.114;2023-04-06T08:37:04;100002.60;;;10.18;74.91
12536;BME280;6334;48.696;2.114;2023-04-06T08:39:35;100005.25;;;9.85;75.23
12536;BME280;6334;48.696;2.114;2023-04-06T08:42:10;100005.63;;;10.07;74.98
12536;BME280;6334;48.696;2.114;2023-04-06T08:44:36;100014.09;;;9.65;75.78
12536;BME280;6334;48.696;2.114;2023-04-06T08:47:06;100018.30;;;9.56;75.85
12536;BME280;6334;48.696;2.114;2023-04-06T08:49:37;100025.19;;;9.58;75.23
12536;BME280;6334;48.696;2.114;2023-04-06T08:52:07;100027.37;;;9.65;76.51
12536;BME280;6334;48.696;2.114;2023-04-06T08:54:38;100016.20;;;9.48;76.15
12536;BME280;6334;48.696;2.114;2023-04-06T08:57:08;99999.52;;;9.93;74.00
12536;BME280;6334;48.696;2.114;2023-04-06T08:59:38;100008.56;;;9.61;75.83
12536;BME280;6334;48.696;2.114;2023-04-06T09:02:09;100016.58;;;10.15;74.78
12536;BME280;6334;48.696;2.114;2023-04-06T09:04:39;100023.53;;;10.04;75.40
12536;BME280;6334;48.696;2.114;2023-04-06T09:07:10;100027.81;;;9.70;76.59
12536;BME280;6334;48.696;2.114;2023-04-06T09:09:40;100035.59;;;9.67;76.38
12536;BME280;6334;48.696;2.114;2023-04-06T09:12:11;100034.40;;;9.48;78.07
12536;BME280;6334;48.696;2.114;2023-04-06T09:14:41;100033.53;;;9.61;77.55
12536;BME280;6334;48.696;2.114;2023-04-06T09:17:19;100037.55;;;9.49;78.36
12536;BME280;6334;48.696;2.114;2023-04-06T09:19:45;100039.96;;;9.34;78.83
12536;BME280;6334;48.696;2.114;2023-04-06T09:22:15;100028.28;;;9.42;78.05
12536;BME280;6334;48.696;2.114;2023-04-06T09:24:46;100033.83;;;9.77;75.58
12536;BME280;6334;48.696;2.114;2023-04-06T09:27:16;100027.30;;;9.98;75.87
12536;BME280;6334;48.696;2.114;2023-04-06T09:29:47;100027.68;;;10.03;75.21
12536;BME280;6334;48.696;2.114;2023-04-06T09:32:17;100030.89;;;9.90;76.21
12536;BME280;6334;48.696;2.114;2023-04-06T09:34:48;100028.86;;;10.00;76.08
12536;BME280;6334;48.696;2.114;2023-04-06T09:37:18;100038.20;;;9.79;76.68
12536;BME280;6334;48.696;2.114;2023-04-06T09:39:49;100027.81;;;10.08;75.88
12536;BME280;6334;48.696;2.114;2023-04-06T09:42:25;100014.09;;;9.81;77.25
12536;BME280;6334;48.696;2.114;2023-04-06T09:44:56;100017.65;;;10.10;75.43
12536;BME280;6334;48.696;2.114;2023-04-06T09:47:26;100029.14;;;10.25;76.41
12536;BME280;6334;48.696;2.114;2023-04-06T09:49:57;100035.89;;;9.87;76.84
12536;BME280;6334;48.696;2.114;2023-04-06T09:52:33;100043.30;;;9.97;76.32
12536;BME280;6334;48.696;2.114;2023-04-06T09:55:04;100039.21;;;9.96;75.96
12536;BME280;6334;48.696;2.114;2023-04-06T09:57:50;100045.95;;;9.76;77.01
12536;BME280;6334;48.696;2.114;2023-04-06T10:00:16;100052.69;;;9.67;77.84
12536;BME280;6334;48.696;2.114;2023-04-06T10:03:33;100048.61;;;9.58;77.97
12536;BME280;6334;48.696;2.114;2023-04-06T10:08:09;100050.88;;;9.93;77.41
12536;BME280;6334;48.696;2.114;2023-04-06T10:10:41;100044.13;;;9.87;77.24
12536;BME280;6334;48.696;2.114;2023-04-06T10:13:11;100040.92;;;10.00;76.74
12536;BME280;6334;48.696;2.114;2023-04-06T10:15:42;100038.72;;;10.13;75.77
12536;BME280;6334;48.696;2.114;2023-04-06T10:18:12;100037.33;;;10.02;75.69
12536;BME280;6334;48.696;2.114;2023-04-06T10:20:54;100039.89;;;9.96;78.11
12536;BME280;6334;48.696;2.114;2023-04-06T10:25:59;100041.66;;;10.11;77.35
12536;BME280;6334;48.696;2.114;2023-04-06T10:28:33;100038.25;;;10.19;76.71
12536;BME280;6334;48.696;2.114;2023-04-06T10:31:05;100045.66;;;10.50;74.55
12536;BME280;6334;48.696;2.114;2023-04-06T10:33:36;100046.34;;;10.44;76.89
12536;BME280;6334;48.696;2.114;2023-04-06T10:36:20;100052.77;;;10.70;74.82
12536;BME280;6334;48.696;2.114;2023-04-06T10:38:45;100046.27;;;10.33;76.88
12536;BME280;6334;48.696;2.114;2023-04-06T10:41:16;100050.34;;;10.22;76.97
12536;BME280;6334;48.696;2.114;2023-04-06T10:43:46;100046.06;;;10.51;76.68
12536;BME280;6334;48.696;2.114;2023-04-06T10:46:16;100044.68;;;10.63;77.37
12536;BME280;6334;48.696;2.114;2023-04-06T10:48:47;100044.97;;;10.74;76.53
12536;BME280;6334;48.696;2.114;2023-04-06T10:51:17;100043.64;;;11.00;74.58
12536;BME280;6334;48.696;2.114;2023-04-06T10:53:49;100047.36;;;10.96;75.94
12536;BME280;6334;48.696;2.114;2023-04-06T10:56:21;100044.50;;;11.09;75.20
12536;BME280;6334;48.696;2.114;2023-04-06T10:58:51;100043.78;;;11.02;74.79
12536;BME280;6334;48.696;2.114;2023-04-06T11:01:21;100049.32;;;10.93;75.63
12536;BME280;6334;48.696;2.114;2023-04-06T11:03:51;100051.06;;;10.98;74.20
12536;BME280;6334;48.696;2.114;2023-04-06T11:06:22;100049.91;;;11.10;73.59
12536;BME280;6334;48.696;2.114;2023-04-06T11:08:52;100053.50;;;10.91;74.22
12536;BME280;6334;48.696;2.114;2023-04-06T11:11:22;100051.11;;;10.82;74.33
12536;BME280;6334;48.696;2.114;2023-04-06T11:13:53;100044.75;;;10.97;74.22
12536;BME280;6334;48.696;2.114;2023-04-06T11:16:23;100047.38;;;11.06;73.60
12536;BME280;6334;48.696;2.114;2023-04-06T11:18:56;100051.88;;;11.13;72.71
12536;BME280;6334;48.696;2.114;2023-04-06T11:21:39;100050.28;;;11.24;71.03
12536;BME280;6334;48.696;2.114;2023-04-06T11:24:08;100056.14;;;11.17;71.81
12536;BME280;6334;48.696;2.114;2023-04-06T11:26:50;100049.55;;;11.05;72.02
12536;BME280;6334;48.696;2.114;2023-04-06T11:29:22;100049.55;;;11.57;71.00
12536;BME280;6334;48.696;2.114;2023-04-06T11:31:53;100037.19;;;11.63;70.53
12536;BME280;6334;48.696;2.114;2023-04-06T11:34:23;100027.64;;;11.40;71.37
12536;BME280;6334;48.696;2.114;2023-04-06T11:36:56;100029.63;;;11.72;70.21
12536;BME280;6334;48.696;2.114;2023-04-06T11:39:26;100027.57;;;12.06;70.35
12536;BME280;6334;48.696;2.114;2023-04-06T11:41:59;100016.86;;;11.68;71.30
12536;BME280;6334;48.696;2.114;2023-04-06T11:44:40;100019.80;;;11.87;71.42
12536;BME280;6334;48.696;2.114;2023-04-06T11:47:03;100011.45;;;12.21;69.54
12536;BME280;6334;48.696;2.114;2023-04-06T11:49:34;100008.83;;;12.10;69.84
12536;BME280;6334;48.696;2.114;2023-04-06T11:52:13;100005.16;;;12.36;68.37
12536;BME280;6334;48.696;2.114;2023-04-06T11:54:36;100003.67;;;12.42;68.35
12536;BME280;6334;48.696;2.114;2023-04-06T11:57:07;100000.67;;;12.39;67.46
12536;BME280;6334;48.696;2.114;2023-04-06T11:59:36;100005.98;;;12.28;66.47
12536;BME280;6334;48.696;2.114;2023-04-06T12:02:07;100002.97;;;12.32;67.41
12536;BME280;6334;48.696;2.114;2023-04-06T12:04:37;100005.25;;;12.04;68.94
12536;BME280;6334;48.696;2.114;2023-04-06T12:07:08;99996.05;;;12.28;67.92
12536;BME280;6334;48.696;2.114;2023-04-06T12:09:38;100000.84;;;12.08;68.47
12536;BME280;6334;48.696;2.114;2023-04-06T12:12:09;99999.16;;;11.95;67.62
12536;BME280;6334;48.696;2.114;2023-04-06T12:14:39;99989.65;;;12.23;67.06
12536;BME280;6334;48.696;2.114;2023-04-06T12:17:10;99993.94;;;12.33;67.06
12536;BME280;6334;48.696;2.114;2023-04-06T12:19:40;99993.84;;;12.59;65.71
12536;BME280;6334;48.696;2.114;2023-04-06T12:22:10;99988.50;;;12.43;66.65
12536;BME280;6334;48.696;2.114;2023-04-06T12:24:41;99989.85;;;12.62;66.03
12536;BME280;6334;48.696;2.114;2023-04-06T12:27:11;99985.75;;;12.90;64.16
12536;BME280;6334;48.696;2.114;2023-04-06T12:29:42;99988.53;;;12.37;65.27
12536;BME280;6334;48.696;2.114;2023-04-06T12:32:12;99991.05;;;12.20;65.73
12536;BME280;6334;48.696;2.114;2023-04-06T12:34:43;99991.97;;;11.98;65.66
12536;BME280;6334;48.696;2.114;2023-04-06T12:37:13;99995.59;;;12.05;65.82
12536;BME280;6334;48.696;2.114;2023-04-06T12:39:44;99987.73;;;11.96;66.02
12536;BME280;6334;48.696;2.114;2023-04-06T12:42:14;99983.94;;;12.12;66.34
12536;BME280;6334;48.696;2.114;2023-04-06T12:44:45;99980.67;;;12.12;66.75
12536;BME280;6334;48.696;2.114;2023-04-06T12:47:15;99981.03;;;12.11;66.23
12536;BME280;6334;48.696;2.114;2023-04-06T12:49:46;99983.59;;;12.22;66.26
12536;BME280;6334;48.696;2.114;2023-04-06T12:52:15;99983.70;;;12.02;67.04
12536;BME280;6334;48.696;2.114;2023-04-06T12:54:47;99986.70;;;12.01;66.99
12536;BME280;6334;48.696;2.114;2023-04-06T12:57:16;99982.38;;;12.15;66.05
12536;BME280;6334;48.696;2.114;2023-04-06T12:59:46;99984.37;;;12.28;65.84
12536;BME280;6334;48.696;2.114;2023-04-06T13:02:17;99981.14;;;12.23;67.22
12536;BME280;6334;48.696;2.114;2023-04-06T13:04:50;99975.02;;;12.44;67.30
12536;BME280;6334;48.696;2.114;2023-04-06T13:07:19;99980.34;;;12.58;68.47
12536;BME280;6334;48.696;2.114;2023-04-06T13:09:49;99981.34;;;12.66;67.91
12536;BME280;6334;48.696;2.114;2023-04-06T13:12:20;99972.70;;;12.77;66.23
12536;BME280;6334;48.696;2.114;2023-04-06T13:14:50;99968.55;;;12.98;65.53
12536;BME280;6334;48.696;2.114;2023-04-06T13:17:21;99971.33;;;12.86;65.18
12536;BME280;6334;48.696;2.114;2023-04-06T13:19:51;99966.80;;;12.93;64.23
12536;BME280;6334;48.696;2.114;2023-04-06T13:22:22;99965.27;;;13.34;63.86
12536;BME280;6334;48.696;2.114;2023-04-06T13:24:52;99965.20;;;13.11;63.13
12536;BME280;6334;48.696;2.114;2023-04-06T13:27:22;99970.02;;;12.99;63.16
12536;BME280;6334;48.696;2.114;2023-04-06T13:29:54;99973.48;;;12.86;62.67
12536;BME280;6334;48.696;2.114;2023-04-06T13:32:23;99977.14;;;12.98;61.77
12536;BME280;6334;48.696;2.114;2023-04-06T13:34:56;99973.37;;;12.98;62.05